createdAt,value
2022-11-09T00:01:31.693Z,11.60
2022-11-09T00:04:16.966Z,11.60
2022-11-09T00:07:02.609Z,11.60
2022-11-09T00:09:51.033Z,11.50
2022-11-09T00:12:36.770Z,11.50
2022-11-09T00:15:24.263Z,11.60
2022-11-09T00:18:10.062Z,11.70
2022-11-09T00:20:58.081Z,11.70
2022-11-09T00:23:46.834Z,11.70
2022-11-09T00:26:34.267Z,11.70
2022-11-09T00:29:19.598Z,11.70
2022-11-09T00:32:05.326Z,11.70
2022-11-09T00:34:50.961Z,11.70
2022-11-09T00:37:36.463Z,11.80
2022-11-09T00:40:21.973Z,11.80
2022-11-09T00:43:07.559Z,11.80
2022-11-09T00:45:57.791Z,11.80
2022-11-09T00:48:45.785Z,11.80
2022-11-09T00:51:31.370Z,11.70
2022-11-09T00:54:17.622Z,11.70
2022-11-09T00:57:02.877Z,11.60
2022-11-09T00:59:48.500Z,11.70
2022-11-09T01:02:33.730Z,11.60
2022-11-09T01:05:19.803Z,11.60
2022-11-09T01:08:06.295Z,11.50
2022-11-09T01:10:54.395Z,11.50
2022-11-09T01:13:42.611Z,11.50
2022-11-09T01:16:27.799Z,11.50
2022-11-09T01:19:15.704Z,11.50
2022-11-09T01:22:03.403Z,11.40
2022-11-09T01:24:49.224Z,11.30
2022-11-09T01:27:35.014Z,11.30
2022-11-09T01:30:23.258Z,11.20
2022-11-09T01:33:11.192Z,11.10
2022-11-09T01:36:11.571Z,11.00
2022-11-09T01:38:57.082Z,10.90
2022-11-09T01:41:42.915Z,10.80
2022-11-09T01:44:32.683Z,10.70
2022-11-09T01:47:25.486Z,10.80
2022-11-09T01:50:13.679Z,10.80
2022-11-09T01:53:02.462Z,10.70
2022-11-09T01:55:55.674Z,10.70
2022-11-09T01:58:56.709Z,10.70
2022-11-09T02:01:43.564Z,10.60
2022-11-09T02:04:42.046Z,10.50
2022-11-09T02:07:27.943Z,10.40
2022-11-09T02:10:31.972Z,10.30
2022-11-09T02:13:20.094Z,10.20
2022-11-09T02:16:07.203Z,10.20
2022-11-09T02:18:55.502Z,10.10
2022-11-09T02:21:45.232Z,10.10
2022-11-09T02:24:32.342Z,10.00
2022-11-09T02:27:19.662Z,9.90
2022-11-09T02:30:05.645Z,10.00
2022-11-09T02:32:53.073Z,9.90
2022-11-09T02:35:38.260Z,9.90
2022-11-09T02:38:23.525Z,9.90
2022-11-09T02:41:11.151Z,9.80
2022-11-09T02:44:00.310Z,9.70
2022-11-09T02:46:46.879Z,9.80
2022-11-09T02:49:32.054Z,9.80
2022-11-09T02:52:18.196Z,9.80
2022-11-09T02:55:06.012Z,9.70
2022-11-09T02:57:51.258Z,9.80
2022-11-09T03:00:39.566Z,9.70
2022-11-09T03:03:25.083Z,9.70
2022-11-09T03:06:13.248Z,9.70
2022-11-09T03:09:02.047Z,9.70
2022-11-09T03:11:47.499Z,9.80
2022-11-09T03:14:35.168Z,9.90
2022-11-09T03:17:20.849Z,10.10
2022-11-09T03:20:09.450Z,10.20
2022-11-09T03:22:58.748Z,10.40
2022-11-09T03:25:44.562Z,10.50
2022-11-09T03:28:30.238Z,10.60
2022-11-09T03:31:15.813Z,10.70
2022-11-09T03:34:21.382Z,10.80
2022-11-09T03:37:07.424Z,10.90
2022-11-09T03:39:55.588Z,11.10
2022-11-09T03:42:45.240Z,11.20
2022-11-09T03:45:30.648Z,11.30
2022-11-09T03:48:16.154Z,11.30
2022-11-09T03:51:02.433Z,11.40
2022-11-09T03:53:47.613Z,11.50
2022-11-09T03:56:33.132Z,11.50
2022-11-09T03:59:19.138Z,11.60
2022-11-09T04:02:04.593Z,11.60
2022-11-09T04:04:52.536Z,11.70
2022-11-09T04:07:38.573Z,11.70
2022-11-09T04:10:25.614Z,11.70
2022-11-09T04:13:10.878Z,11.80
2022-11-09T04:15:56.371Z,11.80
2022-11-09T04:18:41.542Z,11.80
2022-11-09T04:21:29.168Z,11.80
2022-11-09T04:24:15.099Z,11.80
2022-11-09T04:27:00.439Z,11.80
2022-11-09T04:29:46.214Z,11.80
2022-11-09T04:32:32.171Z,11.80
2022-11-09T04:35:19.922Z,11.90
2022-11-09T04:38:12.139Z,11.90
2022-11-09T04:41:03.151Z,11.90
2022-11-09T04:43:48.970Z,11.80
2022-11-09T04:46:34.168Z,11.80
2022-11-09T04:49:19.711Z,11.80
2022-11-09T04:52:05.917Z,11.80
2022-11-09T04:54:53.570Z,11.80
2022-11-09T04:57:38.894Z,11.80
2022-11-09T05:00:24.606Z,11.70
2022-11-09T05:03:10.655Z,11.70
2022-11-09T05:05:58.294Z,11.70
2022-11-09T05:08:43.468Z,11.70
2022-11-09T05:11:29.989Z,11.70
2022-11-09T05:14:15.453Z,11.70
2022-11-09T05:17:01.113Z,11.70
2022-11-09T05:19:46.652Z,11.70
2022-11-09T05:22:50.531Z,11.70
2022-11-09T05:25:36.047Z,11.70
2022-11-09T05:28:23.577Z,11.60
2022-11-09T05:31:12.285Z,11.70
2022-11-09T05:33:59.355Z,11.70
2022-11-09T05:36:46.955Z,11.70
2022-11-09T05:39:32.378Z,11.70
2022-11-09T05:42:20.391Z,11.70
2022-11-09T05:45:35.637Z,11.70
2022-11-09T05:48:20.051Z,11.70
2022-11-09T05:51:11.276Z,11.70
2022-11-09T05:53:58.944Z,11.70
2022-11-09T05:56:44.560Z,11.80
2022-11-09T05:59:30.207Z,11.80
2022-11-09T06:02:18.360Z,11.80
2022-11-09T06:05:04.346Z,11.80
2022-11-09T06:07:51.681Z,11.90
2022-11-09T06:10:37.466Z,11.90
2022-11-09T06:13:23.108Z,11.90
2022-11-09T06:16:10.149Z,11.90
2022-11-09T06:18:55.946Z,11.90
2022-11-09T06:21:41.839Z,11.90
2022-11-09T06:24:27.308Z,11.90
2022-11-09T06:27:12.884Z,11.90
2022-11-09T06:29:57.947Z,11.90
2022-11-09T06:32:43.434Z,12.00
2022-11-09T06:35:29.928Z,11.90
2022-11-09T06:38:15.465Z,12.00
2022-11-09T06:41:03.386Z,12.00
2022-11-09T06:43:48.917Z,12.00
2022-11-09T06:46:36.760Z,12.10
2022-11-09T06:49:22.725Z,12.00
2022-11-09T06:52:08.688Z,12.10
2022-11-09T06:54:53.823Z,12.10
2022-11-09T06:57:39.119Z,12.10
2022-11-09T07:00:27.937Z,12.10
2022-11-09T07:03:18.792Z,12.10
2022-11-09T07:06:06.929Z,12.10
2022-11-09T07:08:56.252Z,12.10
2022-11-09T07:11:43.947Z,12.10
2022-11-09T07:14:29.330Z,12.10
2022-11-09T07:17:17.643Z,12.10
2022-11-09T07:20:09.867Z,12.10
2022-11-09T07:22:55.526Z,12.10
2022-11-09T07:25:41.140Z,12.00
2022-11-09T07:28:26.781Z,12.00
2022-11-09T07:31:12.136Z,11.90
2022-11-09T07:33:59.008Z,11.90
2022-11-09T07:36:44.885Z,11.90
2022-11-09T07:39:30.442Z,11.90
2022-11-09T07:42:16.111Z,11.90
2022-11-09T07:45:03.799Z,11.90
2022-11-09T07:47:49.657Z,11.90
2022-11-09T07:50:36.321Z,11.90
2022-11-09T07:53:24.133Z,11.90
2022-11-09T07:56:12.378Z,11.90
2022-11-09T07:59:00.615Z,11.90
2022-11-09T08:01:48.464Z,12.00
2022-11-09T08:04:36.419Z,12.10
2022-11-09T08:07:23.700Z,12.20
2022-11-09T08:10:10.061Z,12.20
2022-11-09T08:13:08.242Z,12.20
2022-11-09T08:15:53.566Z,12.20
2022-11-09T08:18:41.262Z,12.20
2022-11-09T08:21:26.455Z,12.30
2022-11-09T08:24:12.569Z,12.30
2022-11-09T08:27:00.389Z,12.30
2022-11-09T08:29:46.133Z,12.30
2022-11-09T08:32:34.315Z,12.40
2022-11-09T08:35:24.772Z,12.50
2022-11-09T08:38:10.395Z,12.50
2022-11-09T08:40:59.328Z,12.50
2022-11-09T08:43:47.906Z,12.60
2022-11-09T08:46:40.989Z,12.50
2022-11-09T08:49:27.147Z,12.50
2022-11-09T08:52:12.651Z,12.50
2022-11-09T08:54:58.049Z,12.50
2022-11-09T08:57:43.679Z,12.50
2022-11-09T09:00:30.029Z,12.60
2022-11-09T09:03:16.969Z,12.60
2022-11-09T09:06:07.151Z,12.60
2022-11-09T09:08:53.335Z,12.70
2022-11-09T09:11:38.543Z,12.80
2022-11-09T09:14:24.749Z,13.00
2022-11-09T09:17:12.725Z,13.10
2022-11-09T09:20:00.484Z,13.20
2022-11-09T09:22:49.595Z,13.30
2022-11-09T09:25:35.146Z,13.30
2022-11-09T09:28:20.698Z,13.50
2022-11-09T09:31:12.045Z,13.60
2022-11-09T09:34:01.027Z,13.80
2022-11-09T09:36:48.414Z,13.90
2022-11-09T09:39:36.123Z,13.90
2022-11-09T09:42:30.762Z,13.80
2022-11-09T09:45:25.303Z,13.90
2022-11-09T09:48:44.274Z,13.80
2022-11-09T09:51:32.683Z,13.40
2022-11-09T09:54:28.624Z,13.30
2022-11-09T09:57:20.480Z,13.20
2022-11-09T10:00:09.799Z,13.00
2022-11-09T10:02:55.831Z,12.90
2022-11-09T10:05:51.525Z,12.90
2022-11-09T10:08:41.997Z,12.80
2022-11-09T10:12:01.136Z,12.90
2022-11-09T10:15:02.236Z,13.00
2022-11-09T10:18:08.688Z,13.20
2022-11-09T10:21:30.533Z,13.10
2022-11-09T10:24:31.210Z,13.10
2022-11-09T10:27:35.258Z,13.20
2022-11-09T10:30:27.245Z,13.30
2022-11-09T10:33:21.270Z,13.40
2022-11-09T10:36:22.052Z,13.50
2022-11-09T10:39:13.843Z,13.50
2022-11-09T10:42:04.504Z,13.50
2022-11-09T10:44:50.037Z,13.50
2022-11-09T10:47:48.331Z,13.60
2022-11-09T10:50:55.184Z,13.60
2022-11-09T10:53:40.957Z,13.50
2022-11-09T10:56:33.097Z,13.30
2022-11-09T10:59:29.015Z,13.30
2022-11-09T11:02:29.074Z,13.20
2022-11-09T11:05:17.232Z,13.30
2022-11-09T11:08:22.049Z,13.80
2022-11-09T11:11:35.829Z,13.60
2022-11-09T11:14:29.917Z,13.60
2022-11-09T11:17:34.972Z,13.60
2022-11-09T11:20:26.179Z,13.70
2022-11-09T11:23:28.646Z,13.80
2022-11-09T11:26:13.849Z,14.00
2022-11-09T11:29:16.695Z,14.60
2022-11-09T11:32:02.230Z,15.30
2022-11-09T11:35:03.957Z,15.80
2022-11-09T11:38:22.013Z,16.40
2022-11-09T11:41:08.032Z,16.40
2022-11-09T11:44:20.941Z,16.20
2022-11-09T11:47:33.878Z,16.20
2022-11-09T11:50:39.349Z,16.00
2022-11-09T11:53:52.474Z,15.70
2022-11-09T11:57:06.573Z,15.60
2022-11-09T12:00:10.936Z,15.50
2022-11-09T12:03:45.892Z,15.60
2022-11-09T12:07:08.519Z,15.40
2022-11-09T12:10:13.743Z,15.40
2022-11-09T12:13:17.215Z,15.40
2022-11-09T12:16:21.116Z,15.30
2022-11-09T12:19:48.098Z,15.30
2022-11-09T12:22:47.423Z,15.10
2022-11-09T12:25:51.287Z,15.10
2022-11-09T12:29:08.488Z,15.20
2022-11-09T12:32:05.660Z,15.60
2022-11-09T12:35:14.128Z,15.90
2022-11-09T12:38:15.373Z,16.40
2022-11-09T12:41:06.372Z,16.80
2022-11-09T12:44:18.613Z,16.80
2022-11-09T12:47:10.157Z,17.10
2022-11-09T12:49:57.365Z,17.30
2022-11-09T12:52:46.023Z,17.40
2022-11-09T12:55:57.329Z,17.80
2022-11-09T12:58:43.187Z,17.80
2022-11-09T13:01:35.104Z,17.50
2022-11-09T13:04:23.254Z,17.30
2022-11-09T13:07:14.644Z,16.60
2022-11-09T13:10:02.918Z,16.50
2022-11-09T13:12:48.937Z,16.30
2022-11-09T13:15:38.122Z,16.10
2022-11-09T13:18:35.187Z,16.20
2022-11-09T13:21:24.152Z,16.50
2022-11-09T13:24:31.769Z,16.60
2022-11-09T13:27:33.319Z,16.60
2022-11-09T13:30:28.342Z,16.50
2022-11-09T13:33:23.735Z,16.50
2022-11-09T13:36:09.961Z,16.30
2022-11-09T13:39:31.184Z,16.00
2022-11-09T13:42:30.011Z,15.60
2022-11-09T13:45:54.723Z,15.50
2022-11-09T13:48:54.279Z,15.30
2022-11-09T13:51:46.228Z,15.20
2022-11-09T13:54:36.584Z,15.20
2022-11-09T13:57:23.867Z,15.10
2022-11-09T14:00:23.243Z,15.00
2022-11-09T14:03:25.230Z,14.80
2022-11-09T14:06:13.233Z,14.70
2022-11-09T14:09:00.190Z,14.60
2022-11-09T14:12:17.432Z,14.40
2022-11-09T14:15:31.980Z,14.30
2022-11-09T14:18:48.258Z,14.20
2022-11-09T14:21:49.032Z,14.10
2022-11-09T14:24:38.524Z,14.00
2022-11-09T14:27:24.154Z,13.90
2022-11-09T14:30:22.989Z,13.70
2022-11-09T14:33:22.825Z,13.70
2022-11-09T14:36:13.370Z,13.70
2022-11-09T14:39:03.350Z,13.60
2022-11-09T14:41:50.017Z,13.60
2022-11-09T14:44:46.232Z,13.50
2022-11-09T14:47:38.179Z,13.40
2022-11-09T14:50:34.478Z,13.30
2022-11-09T14:53:31.939Z,13.20
2022-11-09T14:56:20.379Z,13.10
2022-11-09T14:59:13.689Z,13.00
2022-11-09T15:02:01.811Z,12.90
2022-11-09T15:05:52.466Z,12.70
2022-11-09T15:08:47.466Z,12.60
2022-11-09T15:11:42.251Z,12.50
2022-11-09T15:14:31.838Z,12.50
2022-11-09T15:17:24.992Z,12.30
2022-11-09T15:20:13.631Z,12.20
2022-11-09T15:23:21.055Z,12.20
2022-11-09T15:26:06.294Z,12.00
2022-11-09T15:28:52.553Z,11.90
2022-11-09T15:31:38.206Z,11.80
2022-11-09T15:34:26.940Z,11.70
2022-11-09T15:37:23.642Z,11.70
2022-11-09T15:40:14.297Z,11.60
2022-11-09T15:43:04.562Z,11.60
2022-11-09T15:45:50.625Z,11.50
2022-11-09T15:48:36.175Z,11.50
2022-11-09T15:51:21.761Z,11.40
2022-11-09T15:54:07.248Z,11.40
2022-11-09T15:56:52.896Z,11.40
2022-11-09T15:59:38.628Z,11.20
2022-11-09T16:02:24.005Z,11.20
2022-11-09T16:05:09.727Z,11.20
2022-11-09T16:07:55.836Z,11.10
2022-11-09T16:10:46.253Z,11.10
2022-11-09T16:13:31.951Z,11.20
2022-11-09T16:16:17.411Z,11.20
2022-11-09T16:19:05.117Z,11.10
2022-11-09T16:21:53.675Z,11.10
2022-11-09T16:24:42.210Z,11.10
2022-11-09T16:27:49.035Z,11.10
2022-11-09T16:30:42.755Z,11.10
2022-11-09T16:33:32.416Z,11.00
2022-11-09T16:36:23.033Z,11.10
2022-11-09T16:39:16.886Z,11.00
2022-11-09T16:42:09.737Z,11.00
2022-11-09T16:44:59.379Z,10.90
2022-11-09T16:47:54.029Z,10.90
2022-11-09T16:50:39.686Z,10.90
2022-11-09T16:53:27.110Z,10.80
2022-11-09T16:56:13.663Z,10.70
2022-11-09T16:58:59.377Z,10.80
2022-11-09T17:01:53.684Z,10.70
2022-11-09T17:04:39.250Z,10.70
2022-11-09T17:07:24.920Z,10.70
2022-11-09T17:10:11.770Z,10.50
2022-11-09T17:12:59.459Z,10.60
2022-11-09T17:15:49.837Z,10.50
2022-11-09T17:18:35.190Z,10.50
2022-11-09T17:21:21.630Z,10.50
2022-11-09T17:24:07.244Z,10.40
2022-11-09T17:26:52.769Z,10.60
2022-11-09T17:29:41.180Z,10.50
2022-11-09T17:32:28.251Z,10.50
2022-11-09T17:35:13.935Z,10.50
2022-11-09T17:38:02.614Z,10.40
2022-11-09T17:40:50.575Z,10.40
2022-11-09T17:43:38.366Z,10.40
2022-11-09T17:46:24.199Z,10.50
2022-11-09T17:49:10.418Z,10.40
2022-11-09T17:51:56.666Z,10.40
2022-11-09T17:54:44.177Z,10.40
2022-11-09T17:57:29.501Z,10.20
2022-11-09T18:00:15.576Z,10.20
2022-11-09T18:03:00.862Z,10.30
2022-11-09T18:05:46.534Z,10.50
2022-11-09T18:08:35.191Z,10.60
2022-11-09T18:11:21.492Z,10.80
2022-11-09T18:14:11.123Z,10.90
2022-11-09T18:16:59.627Z,11.00
2022-11-09T18:19:45.289Z,11.00
2022-11-09T18:22:31.979Z,11.10
2022-11-09T18:25:18.150Z,11.40
2022-11-09T18:28:04.457Z,11.70
2022-11-09T18:30:49.818Z,11.80
2022-11-09T18:33:36.154Z,12.00
2022-11-09T18:36:22.115Z,12.10
2022-11-09T18:39:07.595Z,12.20
2022-11-09T18:41:54.712Z,12.30
2022-11-09T18:44:40.374Z,12.40
2022-11-09T18:47:26.130Z,12.50
2022-11-09T18:50:11.411Z,12.60
2022-11-09T18:52:56.983Z,12.70
2022-11-09T18:55:44.555Z,12.70
2022-11-09T18:58:30.468Z,12.80
2022-11-09T19:01:16.101Z,12.90
2022-11-09T19:04:01.949Z,12.90
2022-11-09T19:06:47.454Z,13.00
2022-11-09T19:09:38.534Z,12.90
2022-11-09T19:12:25.272Z,13.00
2022-11-09T19:15:10.773Z,13.00
2022-11-09T19:17:56.363Z,12.80
2022-11-09T19:20:41.899Z,12.70
2022-11-09T19:23:33.836Z,12.50
2022-11-09T19:26:21.961Z,12.40
2022-11-09T19:29:10.258Z,12.40
2022-11-09T19:31:55.703Z,12.50
2022-11-09T19:34:43.673Z,12.50
2022-11-09T19:37:32.252Z,12.50
2022-11-09T19:40:17.963Z,12.50
2022-11-09T19:43:03.403Z,12.50
2022-11-09T19:45:48.826Z,12.30
2022-11-09T19:48:38.010Z,12.20
2022-11-09T19:51:26.617Z,12.10
2022-11-09T19:54:13.224Z,12.00
2022-11-09T19:56:59.167Z,11.90
2022-11-09T19:59:44.685Z,11.80
2022-11-09T20:02:31.043Z,11.70
2022-11-09T20:05:16.679Z,11.60
2022-11-09T20:08:04.131Z,11.50
2022-11-09T20:10:52.387Z,11.50
2022-11-09T20:13:39.503Z,11.40
2022-11-09T20:16:25.873Z,11.40
2022-11-09T20:19:12.991Z,11.30
2022-11-09T20:22:01.869Z,11.20
2022-11-09T20:24:47.121Z,11.20
2022-11-09T20:27:33.078Z,11.10
2022-11-09T20:30:18.505Z,11.10
2022-11-09T20:33:07.027Z,11.00
2022-11-09T20:35:56.049Z,11.00
2022-11-09T20:38:41.770Z,11.00
2022-11-09T20:41:27.411Z,11.00
2022-11-09T20:44:15.095Z,10.90
2022-11-09T20:47:00.804Z,10.90
2022-11-09T20:49:47.319Z,10.90
2022-11-09T20:52:35.066Z,10.80
2022-11-09T20:55:20.748Z,10.80
2022-11-09T20:58:06.985Z,10.80
2022-11-09T21:01:17.077Z,10.80
2022-11-09T21:04:03.024Z,10.80
2022-11-09T21:06:48.670Z,10.80
2022-11-09T21:09:36.898Z,10.90
2022-11-09T21:12:22.353Z,10.90
2022-11-09T21:15:08.468Z,10.90
2022-11-09T21:17:58.504Z,10.90
2022-11-09T21:20:44.114Z,10.80
2022-11-09T21:23:48.158Z,10.90
2022-11-09T21:26:53.074Z,10.90
2022-11-09T21:29:53.144Z,10.90
2022-11-09T21:32:40.082Z,10.90
2022-11-09T21:35:25.759Z,10.80
2022-11-09T21:38:11.276Z,10.90
2022-11-09T21:41:05.444Z,10.80
2022-11-09T21:43:56.712Z,10.80
2022-11-09T21:46:46.176Z,10.90
2022-11-09T21:49:32.217Z,10.90
2022-11-09T21:52:17.744Z,11.00
2022-11-09T21:55:03.427Z,11.00
2022-11-09T21:57:49.261Z,11.10
2022-11-09T22:00:37.480Z,11.20
2022-11-09T22:03:23.356Z,11.20
2022-11-09T22:06:11.982Z,11.30
2022-11-09T22:09:00.854Z,11.30
2022-11-09T22:12:05.308Z,11.40
2022-11-09T22:15:09.205Z,11.50
2022-11-09T22:17:55.214Z,11.50
2022-11-09T22:20:55.620Z,11.50
2022-11-09T22:23:41.380Z,11.60
2022-11-09T22:26:28.387Z,11.70
2022-11-09T22:29:13.749Z,11.70
2022-11-09T22:31:59.147Z,11.80
2022-11-09T22:34:44.858Z,11.80
2022-11-09T22:37:30.417Z,11.90
2022-11-09T22:40:15.865Z,11.90
2022-11-09T22:43:02.088Z,11.80
2022-11-09T22:45:47.529Z,11.80
2022-11-09T22:48:33.719Z,11.80
2022-11-09T22:51:19.692Z,11.70
2022-11-09T22:54:05.532Z,11.70
2022-11-09T22:56:50.749Z,11.70
2022-11-09T22:59:36.078Z,11.70
2022-11-09T23:02:23.764Z,11.80
2022-11-09T23:05:12.768Z,11.80
2022-11-09T23:07:58.614Z,11.80
2022-11-09T23:10:46.575Z,11.80
2022-11-09T23:13:32.407Z,11.90
2022-11-09T23:16:18.754Z,12.00
2022-11-09T23:19:04.046Z,11.90
2022-11-09T23:21:49.343Z,12.00
2022-11-09T23:24:53.242Z,12.10
2022-11-09T23:27:38.623Z,12.00
2022-11-09T23:30:24.414Z,11.90
2022-11-09T23:33:10.092Z,11.80
2022-11-09T23:35:56.203Z,11.70
2022-11-09T23:38:41.988Z,11.70
2022-11-09T23:41:27.851Z,11.70
2022-11-09T23:44:13.404Z,11.80
2022-11-09T23:47:01.825Z,11.70
2022-11-09T23:49:47.158Z,11.90
2022-11-09T23:52:34.656Z,12.00
2022-11-09T23:55:19.926Z,12.00
2022-11-09T23:58:09.085Z,12.10
